Triplett, North Carolina
Current Conditions -  °F | °C
As of 11:35 PM on Friday 24 Oct 2014 (Local Time) from KTNB Reporting Station
Clear Clear  
Wind Chill: 42°   Ceiling: Unl
Heat Index: 44°   Visibility: 10mi
Dew Point: 36°   Wind: 5mph
Humidity: 71%   Direction: 280°W
Pressure: 30.08"   Gusts: NA
Location:  36.1935°N, 81.5276°W
Report Text: KTNB 250335Z AUTO 28004KT 10SM CLR 07/02 A3008 RMK AO2 T00690020
Loading
Personal Weather Stations






























Interactive Weather Map
Tropical Storm Tracking
New forecast layout! Learn more

10-Day Weather Forecast

Advertisements
Track Severe Weather on mobile